Time;durP1;ratioP1;P1;durP2;ratioP2;P2;SDS_P1;SDS_P2;PMS_P1;PMS_P2;Temp;Humidity;BMP_temperature;BMP_pressure;BME280_temperature;BME280_humidity;BME280_pressure;Samples;Min_cycle;Max_cycle;Signal;HPM_P1;HPM_P2
2022/11/14 00:00:37;;;;;;;17.97;14.90;;;3.10;99.90;;;;;;4979719;28;20659;-86
2022/11/14 00:03:06;;;;;;;17.73;15.50;;;3.00;99.90;;;;;;4984880;28;20708;-85
2022/11/14 00:05:33;;;;;;;19.57;17.47;;;3.20;99.90;;;;;;4983011;28;21208;-86
2022/11/14 00:08:00;;;;;;;18.57;16.67;;;3.10;99.90;;;;;;4981275;28;20988;-85
2022/11/14 00:10:26;;;;;;;17.80;15.90;;;3.00;99.90;;;;;;4982526;28;20743;-85
2022/11/14 00:12:53;;;;;;;17.13;14.43;;;2.90;99.90;;;;;;4980563;28;21200;-85
2022/11/14 00:15:20;;;;;;;18.33;16.43;;;3.10;99.90;;;;;;4981030;28;20631;-86
2022/11/14 00:17:48;;;;;;;18.10;16.20;;;3.10;99.90;;;;;;4984901;28;20632;-85
2022/11/14 00:20:15;;;;;;;19.27;16.40;;;2.90;99.90;;;;;;4979670;28;20988;-85
2022/11/14 00:22:42;;;;;;;19.50;17.50;;;3.10;99.90;;;;;;4988088;28;20637;-85
2022/11/14 00:25:10;;;;;;;18.30;16.50;;;2.90;99.90;;;;;;4978683;28;20659;-85
2022/11/14 00:27:37;;;;;;;18.43;16.53;;;2.80;99.90;;;;;;4983848;28;20678;-85
2022/11/14 00:30:04;;;;;;;17.30;15.47;;;2.90;99.90;;;;;;4983706;28;20675;-85
2022/11/14 00:32:32;;;;;;;18.70;16.47;;;2.80;99.90;;;;;;4982788;28;20658;-85
2022/11/14 00:35:00;;;;;;;19.30;17.00;;;2.70;99.90;;;;;;4984516;28;20631;-85
2022/11/14 00:37:26;;;;;;;20.73;18.53;;;3.00;99.90;;;;;;4988470;28;21096;-85
2022/11/14 00:39:53;;;;;;;20.30;16.27;;;2.60;99.90;;;;;;4982341;28;20668;-85
2022/11/14 00:42:20;;;;;;;19.20;17.10;;;2.90;99.90;;;;;;4987338;28;21171;-83
2022/11/14 00:44:48;;;;;;;21.10;17.50;;;3.00;99.90;;;;;;4990663;28;20636;-85
2022/11/14 00:47:15;;;;;;;24.17;19.70;;;2.80;99.90;;;;;;4985154;28;20672;-84
2022/11/14 00:49:42;;;;;;;20.47;18.27;;;2.70;99.90;;;;;;4972422;28;20658;-85
2022/11/14 00:52:10;;;;;;;21.93;19.83;;;3.00;99.90;;;;;;4987514;28;20627;-85
2022/11/14 00:54:37;;;;;;;21.20;17.93;;;2.80;99.90;;;;;;4977677;28;20627;-84
2022/11/14 00:57:04;;;;;;;26.17;20.70;;;2.80;99.90;;;;;;4990371;28;20634;-85
2022/11/14 00:59:31;;;;;;;21.93;18.97;;;2.70;99.90;;;;;;4992285;28;20661;-85
2022/11/14 01:01:58;;;;;;;19.10;17.10;;;2.70;99.90;;;;;;4992390;28;20670;-84
2022/11/14 01:04:25;;;;;;;21.43;18.47;;;2.80;99.90;;;;;;4993173;28;20628;-85
2022/11/14 01:06:51;;;;;;;21.33;19.10;;;2.80;99.90;;;;;;4998651;28;20679;-85
2022/11/14 01:09:19;;;;;;;19.40;17.40;;;2.60;99.90;;;;;;4995052;28;20630;-85
2022/11/14 01:11:46;;;;;;;19.03;16.83;;;2.60;99.90;;;;;;4994740;28;20630;-86
2022/11/14 01:14:13;;;;;;;19.53;17.53;;;2.60;99.90;;;;;;4994756;28;20619;-84
2022/11/14 01:16:40;;;;;;;21.00;18.33;;;2.20;99.90;;;;;;4992504;28;20643;-84
2022/11/14 01:19:07;;;;;;;19.77;17.33;;;2.60;99.90;;;;;;4991679;28;21198;-84
2022/11/14 01:21:33;;;;;;;18.97;16.97;;;2.60;99.90;;;;;;4993756;28;20650;-84
2022/11/14 01:24:00;;;;;;;21.40;17.37;;;2.30;99.90;;;;;;4991191;28;20679;-85
2022/11/14 01:26:28;;;;;;;18.70;16.70;;;2.50;99.90;;;;;;4985904;28;20663;-84
2022/11/14 01:28:55;;;;;;;17.73;15.83;;;2.40;99.90;;;;;;4994025;28;20634;-85
2022/11/14 01:31:24;;;;;;;16.00;14.23;;;2.50;99.90;;;;;;4988744;28;20654;-85
2022/11/14 01:33:53;;;;;;;17.43;15.07;;;2.50;99.90;;;;;;4983960;28;20632;-85
2022/11/14 01:36:21;;;;;;;19.23;16.23;;;2.50;99.90;;;;;;4989549;28;20630;-86
2022/11/14 01:38:52;;;;;;;18.23;16.27;;;2.60;99.90;;;;;;4996387;28;20636;-86
2022/11/14 01:41:20;;;;;;;19.70;16.27;;;2.00;99.90;;;;;;4997875;28;20685;-85
2022/11/14 01:43:48;;;;;;;18.20;15.57;;;2.80;99.90;;;;;;4987108;28;20630;-86
2022/11/14 01:46:19;;;;;;;18.23;15.80;;;2.70;99.90;;;;;;4987031;28;20829;-86
2022/11/14 01:48:52;;;;;;;20.20;17.20;;;2.60;99.90;;;;;;4985948;28;20636;-86
2022/11/14 01:51:26;;;;;;;17.57;15.33;;;2.60;99.90;;;;;;4991609;28;20641;-86
2022/11/14 01:53:55;;;;;;;18.63;15.77;;;2.40;99.90;;;;;;4998302;28;20631;-85
2022/11/14 01:56:28;;;;;;;16.30;14.67;;;2.60;99.90;;;;;;4989638;28;20630;-85
2022/11/14 01:59:00;;;;;;;17.10;15.23;;;2.70;99.90;;;;;;4985341;28;20627;-85
2022/11/14 02:01:30;;;;;;;16.70;15.03;;;2.50;99.90;;;;;;4990012;28;20648;-85
2022/11/14 02:03:59;;;;;;;17.80;15.90;;;2.70;99.90;;;;;;4987887;28;20639;-85
2022/11/14 02:06:30;;;;;;;16.60;14.83;;;2.60;99.90;;;;;;4988748;28;20670;-86
2022/11/14 02:09:00;;;;;;;16.10;14.50;;;2.50;99.90;;;;;;4991410;28;20630;-85
2022/11/14 02:11:30;;;;;;;18.03;16.27;;;2.60;99.90;;;;;;4984783;28;20646;-85
2022/11/14 02:13:59;;;;;;;18.90;16.97;;;2.30;99.90;;;;;;4986245;28;20640;-85
2022/11/14 02:16:26;;;;;;;16.70;14.90;;;2.50;99.90;;;;;;4991310;28;20672;-85
2022/11/14 02:18:53;;;;;;;19.33;16.80;;;2.30;99.90;;;;;;4985474;28;20633;-85
2022/11/14 02:21:21;;;;;;;19.57;16.87;;;1.80;99.90;;;;;;4991153;28;20650;-85
2022/11/14 02:23:48;;;;;;;20.27;17.80;;;2.30;99.90;;;;;;4984234;28;20642;-85
2022/11/14 02:26:18;;;;;;;21.30;18.13;;;1.70;99.90;;;;;;4988024;28;20626;-86
2022/11/14 02:28:45;;;;;;;19.13;17.23;;;2.30;99.90;;;;;;4982275;28;20634;-85
2022/11/14 02:31:13;;;;;;;22.63;17.93;;;2.20;99.90;;;;;;4987994;28;20654;-85
2022/11/14 02:33:40;;;;;;;21.00;18.30;;;2.20;99.90;;;;;;4982222;28;21387;-85
2022/11/14 02:36:07;;;;;;;31.47;20.70;;;2.30;99.90;;;;;;4985823;28;20637;-85
2022/11/14 02:38:35;;;;;;;39.87;20.43;;;2.10;99.90;;;;;;4981809;28;20625;-86
2022/11/14 02:41:02;;;;;;;23.67;19.07;;;2.20;99.90;;;;;;4975216;28;20775;-85
2022/11/14 02:43:29;;;;;;;22.90;18.20;;;2.40;99.90;;;;;;4983378;28;20649;-86
2022/11/14 02:45:57;;;;;;;20.97;18.07;;;2.40;99.90;;;;;;4983561;28;20641;-85
2022/11/14 02:48:24;;;;;;;24.07;19.70;;;2.30;99.90;;;;;;4988359;28;20677;-84
2022/11/14 02:50:50;;;;;;;24.10;19.87;;;2.50;99.90;;;;;;4982668;28;20669;-85
2022/11/14 02:53:18;;;;;;;50.03;22.70;;;2.30;99.90;;;;;;4985877;28;20645;-83
2022/11/14 02:55:46;;;;;;;157.50;29.83;;;2.50;99.90;;;;;;4985162;28;20645;-84
2022/11/14 02:58:15;;;;;;;378.73;38.13;;;1.90;99.90;;;;;;4983899;28;20619;-85
2022/11/14 03:00:41;;;;;;;325.63;36.80;;;2.10;99.90;;;;;;4981697;28;20669;-85
2022/11/14 03:03:08;;;;;;;366.20;41.33;;;2.10;99.90;;;;;;4985672;28;20648;-85
2022/11/14 03:05:35;;;;;;;309.53;33.07;;;2.00;99.90;;;;;;4981767;28;21006;-85
2022/11/14 03:08:02;;;;;;;396.13;41.00;;;2.20;99.90;;;;;;4967442;28;20677;-85
2022/11/14 03:10:28;;;;;;;549.97;45.80;;;2.50;99.90;;;;;;4984457;28;20662;-84
2022/11/14 03:12:57;;;;;;;404.30;43.50;;;2.30;99.90;;;;;;4987871;28;20643;-84
2022/11/14 03:15:24;;;;;;;220.47;30.07;;;2.20;99.90;;;;;;4985231;28;20634;-85
2022/11/14 03:17:51;;;;;;;260.57;35.07;;;2.70;99.90;;;;;;4982563;28;20623;-85
2022/11/14 03:20:19;;;;;;;215.00;28.90;;;2.60;99.90;;;;;;4989738;28;20665;-85
2022/11/14 03:22:45;;;;;;;182.40;27.93;;;2.50;99.90;;;;;;4990770;28;20634;-84
2022/11/14 03:25:12;;;;;;;134.53;23.90;;;2.60;99.90;;;;;;4990767;28;20628;-84
2022/11/14 03:27:39;;;;;;;131.47;23.43;;;2.40;99.90;;;;;;4982757;28;20670;-84
2022/11/14 03:30:09;;;;;;;120.43;23.80;;;2.20;99.90;;;;;;5014877;28;20667;-83
2022/11/14 03:32:36;;;;;;;72.07;20.50;;;2.50;99.90;;;;;;5016484;28;20640;-84
2022/11/14 03:35:02;;;;;;;21.20;16.70;;;2.40;99.90;;;;;;5002521;28;20639;-84
2022/11/14 03:37:29;;;;;;;20.70;18.03;;;2.20;99.90;;;;;;5008494;28;20622;-84
2022/11/14 03:39:56;;;;;;;44.40;18.30;;;2.10;99.90;;;;;;4993181;28;20658;-84
2022/11/14 03:42:23;;;;;;;64.63;19.80;;;2.10;99.90;;;;;;4982484;28;20633;-84
2022/11/14 03:44:50;;;;;;;47.53;17.33;;;2.10;99.90;;;;;;4979269;28;20645;-84
2022/11/14 03:47:18;;;;;;;92.30;20.63;;;2.00;99.90;;;;;;4982227;28;20666;-84
2022/11/14 03:49:45;;;;;;;94.03;20.73;;;2.10;99.90;;;;;;4980987;28;21027;-84
2022/11/14 03:52:12;;;;;;;188.73;26.07;;;2.00;99.90;;;;;;4981602;28;20628;-84
2022/11/14 03:54:38;;;;;;;101.67;20.73;;;1.50;99.90;;;;;;4982070;28;21227;-84
2022/11/14 03:57:05;;;;;;;67.07;20.27;;;1.40;99.90;;;;;;4987038;28;20985;-83
2022/11/14 03:59:32;;;;;;;168.33;27.00;;;2.00;99.90;;;;;;4984065;28;20773;-84
2022/11/14 04:01:59;;;;;;;138.63;26.17;;;1.90;99.90;;;;;;4982104;28;20668;-84
2022/11/14 04:04:27;;;;;;;229.03;30.60;;;1.90;99.90;;;;;;4981075;28;20638;-84
2022/11/14 04:06:54;;;;;;;106.77;22.87;;;1.90;99.90;;;;;;4981366;28;20664;-84
2022/11/14 04:09:20;;;;;;;34.37;17.83;;;2.20;99.90;;;;;;4986403;28;20628;-85
2022/11/14 04:11:47;;;;;;;65.77;22.13;;;2.00;99.90;;;;;;4988715;28;20640;-85
2022/11/14 04:14:14;;;;;;;28.83;18.10;;;2.10;99.90;;;;;;4978443;28;20636;-84
2022/11/14 04:16:41;;;;;;;66.57;20.53;;;2.40;99.90;;;;;;4987931;28;20631;-85
2022/11/14 04:19:08;;;;;;;70.37;19.90;;;2.10;99.90;;;;;;4980092;28;20641;-85
2022/11/14 04:21:36;;;;;;;137.67;24.90;;;2.40;99.90;;;;;;4982103;28;21213;-85
2022/11/14 04:24:03;;;;;;;153.47;24.43;;;2.20;99.90;;;;;;4986990;28;20645;-84
2022/11/14 04:26:29;;;;;;;165.57;26.30;;;2.10;99.90;;;;;;4980961;28;20622;-84
2022/11/14 04:28:56;;;;;;;191.13;28.50;;;2.30;99.90;;;;;;4983632;28;20693;-84
2022/11/14 04:31:23;;;;;;;185.10;26.40;;;2.30;99.90;;;;;;4990130;28;20663;-83
2022/11/14 04:33:50;;;;;;;232.60;36.50;;;2.20;99.90;;;;;;4984200;28;20635;-84
2022/11/14 04:36:17;;;;;;;176.73;26.80;;;2.30;99.90;;;;;;4988238;28;20762;-84
2022/11/14 04:38:45;;;;;;;149.90;23.17;;;1.80;99.90;;;;;;4984967;28;20635;-83
2022/11/14 04:41:12;;;;;;;189.40;27.70;;;2.50;99.90;;;;;;4980272;28;20661;-87
2022/11/14 04:43:39;;;;;;;184.87;26.40;;;2.30;99.90;;;;;;4983305;28;20637;-84
2022/11/14 04:46:06;;;;;;;235.83;29.37;;;2.20;99.90;;;;;;4975743;28;20633;-84
2022/11/14 04:48:33;;;;;;;225.53;31.77;;;2.30;99.90;;;;;;4979471;28;20674;-85
2022/11/14 04:51:00;;;;;;;179.57;27.10;;;2.20;99.90;;;;;;4976676;28;20662;-85
2022/11/14 04:53:27;;;;;;;258.27;33.07;;;2.30;99.90;;;;;;4983305;28;20635;-85
2022/11/14 04:55:55;;;;;;;136.73;26.47;;;2.30;99.90;;;;;;4989736;28;20637;-85
2022/11/14 04:58:22;;;;;;;104.93;23.20;;;2.30;99.90;;;;;;4967357;28;20632;-85
2022/11/14 05:00:49;;;;;;;208.37;26.63;;;2.30;99.90;;;;;;4983067;28;20751;-84
2022/11/14 05:03:16;;;;;;;165.07;24.77;;;2.10;99.90;;;;;;4983602;28;20621;-85
2022/11/14 05:05:43;;;;;;;120.93;24.63;;;2.00;99.90;;;;;;4982220;28;20622;-85
2022/11/14 05:08:10;;;;;;;99.73;22.30;;;2.10;99.90;;;;;;4983956;28;20666;-84
2022/11/14 05:10:37;;;;;;;94.33;24.47;;;2.10;99.90;;;;;;4986788;28;20662;-86
2022/11/14 05:13:05;;;;;;;246.67;28.60;;;2.30;99.90;;;;;;4984261;28;21406;-84
2022/11/14 05:15:33;;;;;;;139.50;24.07;;;1.90;99.90;;;;;;4979013;28;20635;-87
2022/11/14 05:17:59;;;;;;;151.10;25.63;;;1.90;99.90;;;;;;4983273;28;20695;-85
2022/11/14 05:20:26;;;;;;;191.13;28.17;;;1.50;99.90;;;;;;4986035;28;20664;-85
2022/11/14 05:22:54;;;;;;;114.63;23.47;;;1.50;99.90;;;;;;4978633;28;21215;-86
2022/11/14 05:25:21;;;;;;;93.80;21.63;;;2.10;99.90;;;;;;4983898;28;20703;-85
2022/11/14 05:27:48;;;;;;;77.80;20.23;;;1.70;99.90;;;;;;4979187;28;20673;-86
2022/11/14 05:30:16;;;;;;;117.70;24.13;;;2.20;99.90;;;;;;4989698;28;20664;-85
2022/11/14 05:32:43;;;;;;;115.83;24.20;;;2.30;99.90;;;;;;4980087;28;21224;-85
2022/11/14 05:35:11;;;;;;;172.90;30.27;;;2.20;99.90;;;;;;4991143;28;20652;-85
2022/11/14 05:37:38;;;;;;;109.23;23.07;;;2.30;99.90;;;;;;4980570;28;20633;-84
2022/11/14 05:40:06;;;;;;;77.73;21.40;;;1.60;99.90;;;;;;4982794;28;20662;-85
2022/11/14 05:42:33;;;;;;;68.10;20.53;;;2.20;99.90;;;;;;4986681;28;20733;-85
2022/11/14 05:44:59;;;;;;;50.87;18.63;;;2.40;99.90;;;;;;4973349;28;20643;-85
2022/11/14 05:47:27;;;;;;;39.30;18.23;;;2.10;99.90;;;;;;4979501;28;20698;-85
2022/11/14 05:49:54;;;;;;;24.00;16.30;;;2.30;99.90;;;;;;4981133;28;20661;-85
2022/11/14 05:52:21;;;;;;;22.40;17.23;;;2.10;99.90;;;;;;4986690;28;20645;-85
2022/11/14 05:54:47;;;;;;;37.87;18.67;;;2.40;99.90;;;;;;4982775;28;20649;-85
2022/11/14 05:57:15;;;;;;;31.43;17.70;;;2.50;99.90;;;;;;4983793;28;20656;-85
2022/11/14 05:59:42;;;;;;;23.87;17.43;;;2.30;99.90;;;;;;4985578;28;20668;-85
2022/11/14 06:02:09;;;;;;;22.87;17.10;;;2.20;99.90;;;;;;4985066;28;20632;-85
2022/11/14 06:04:37;;;;;;;18.47;16.33;;;2.00;99.90;;;;;;4978477;28;21264;-84
2022/11/14 06:07:04;;;;;;;16.57;14.90;;;2.00;99.90;;;;;;4988981;28;21307;-84
2022/11/14 06:09:31;;;;;;;19.90;18.10;;;2.00;99.90;;;;;;4987909;28;21268;-85
2022/11/14 06:11:57;;;;;;;20.00;18.20;;;2.40;99.90;;;;;;4983429;28;20641;-84
2022/11/14 06:14:24;;;;;;;16.87;15.17;;;2.40;99.90;;;;;;4981421;28;20641;-84
2022/11/14 06:16:52;;;;;;;14.67;13.33;;;2.60;99.90;;;;;;4975846;28;20634;-84
2022/11/14 06:19:20;;;;;;;15.70;14.30;;;2.50;99.90;;;;;;4982174;28;20626;-84
2022/11/14 06:21:50;;;;;;;17.40;15.80;;;2.60;99.90;;;;;;4985493;28;20639;-84
2022/11/14 06:24:17;;;;;;;16.70;15.10;;;2.70;99.90;;;;;;4985053;28;20631;-84
2022/11/14 06:26:44;;;;;;;17.80;16.30;;;2.60;99.90;;;;;;4983326;28;21087;-84
2022/11/14 06:29:11;;;;;;;19.00;17.40;;;2.70;99.90;;;;;;4982225;28;20668;-84
2022/11/14 06:31:38;;;;;;;23.30;21.30;;;2.80;99.90;;;;;;4987270;28;20655;-86
2022/11/14 06:34:05;;;;;;;15.73;14.43;;;2.80;99.90;;;;;;4980463;28;20640;-85
2022/11/14 06:36:32;;;;;;;15.87;14.47;;;3.10;99.90;;;;;;4983984;28;20623;-86
2022/11/14 06:39:00;;;;;;;15.90;14.50;;;2.80;99.90;;;;;;4988102;28;20638;-86
2022/11/14 06:41:26;;;;;;;16.27;14.77;;;3.00;99.90;;;;;;4983885;28;20669;-86
2022/11/14 06:43:53;;;;;;;20.17;18.27;;;2.90;99.90;;;;;;4985628;28;20636;-85
2022/11/14 06:46:21;;;;;;;17.00;15.33;;;2.90;99.90;;;;;;4983381;28;20627;-85
2022/11/14 06:48:51;;;;;;;18.57;16.70;;;3.00;99.90;;;;;;4981770;28;20667;-85
2022/11/14 06:51:18;;;;;;;16.70;15.10;;;3.10;99.90;;;;;;4985080;28;20654;-85
2022/11/14 06:53:45;;;;;;;20.57;18.87;;;3.30;99.90;;;;;;4984678;28;20652;-86
2022/11/14 06:56:15;;;;;;;18.83;17.20;;;3.30;99.90;;;;;;4983872;28;20643;-85
2022/11/14 06:58:44;;;;;;;17.90;16.50;;;3.60;99.90;;;;;;4989015;28;20620;-85
2022/11/14 07:01:13;;;;;;;16.60;15.20;;;3.20;99.90;;;;;;4980390;28;20652;-85
2022/11/14 07:03:40;;;;;;;19.07;17.27;;;3.50;99.90;;;;;;4980889;28;20617;-85
2022/11/14 07:06:10;;;;;;;21.47;19.57;;;3.60;99.90;;;;;;4979145;28;20641;-86
2022/11/14 07:08:37;;;;;;;16.93;15.37;;;3.50;99.90;;;;;;4985749;28;20661;-86
2022/11/14 07:11:05;;;;;;;20.60;15.83;;;3.60;99.90;;;;;;4972182;28;20659;-86
2022/11/14 07:13:35;;;;;;;16.27;14.80;;;3.60;99.90;;;;;;4989815;28;20636;-85
2022/11/14 07:16:02;;;;;;;16.47;14.97;;;3.90;99.90;;;;;;4988637;28;21072;-86
2022/11/14 07:18:31;;;;;;;16.03;14.60;;;3.40;99.90;;;;;;4963965;28;20649;-84
2022/11/14 07:20:59;;;;;;;17.03;15.50;;;3.80;99.90;;;;;;4984059;28;20740;-85
2022/11/14 07:23:26;;;;;;;16.43;14.90;;;3.90;99.90;;;;;;4979845;28;20632;-85
2022/11/14 07:25:53;;;;;;;17.37;15.80;;;4.00;99.90;;;;;;4981105;28;20643;-85
2022/11/14 07:28:20;;;;;;;16.30;14.70;;;4.00;99.90;;;;;;4983669;28;20653;-85
2022/11/14 07:30:48;;;;;;;17.93;16.10;;;4.00;99.90;;;;;;4981525;28;20657;-85
2022/11/14 07:33:16;;;;;;;19.40;17.43;;;3.90;99.90;;;;;;4979117;28;20629;-85
2022/11/14 07:35:43;;;;;;;47.47;42.57;;;3.90;99.90;;;;;;4984524;28;20644;-85
2022/11/14 07:38:10;;;;;;;20.10;17.50;;;3.90;99.90;;;;;;4982717;28;20633;-85
2022/11/14 07:40:36;;;;;;;19.50;17.60;;;3.90;99.90;;;;;;4980403;28;20900;-86
2022/11/14 07:43:03;;;;;;;19.60;17.90;;;3.90;99.90;;;;;;4984496;28;20632;-86
2022/11/14 07:45:32;;;;;;;17.67;16.17;;;3.80;99.90;;;;;;4984278;28;20636;-85
2022/11/14 07:48:02;;;;;;;18.33;16.60;;;3.60;99.90;;;;;;4984153;28;20719;-85
2022/11/14 07:50:30;;;;;;;20.50;18.70;;;3.90;99.90;;;;;;4980659;28;20660;-84
2022/11/14 07:52:57;;;;;;;26.63;24.03;;;3.70;99.90;;;;;;4977919;28;20702;-84
2022/11/14 07:55:24;;;;;;;23.20;21.13;;;4.10;99.90;;;;;;4980150;28;20667;-85
2022/11/14 07:57:53;;;;;;;21.53;19.73;;;4.30;99.90;;;;;;4981598;28;20686;-85
2022/11/14 08:00:20;;;;;;;20.63;18.63;;;4.40;99.90;;;;;;4978294;28;20633;-85
2022/11/14 08:02:48;;;;;;;18.70;17.07;;;4.50;99.90;;;;;;4983502;28;20629;-85
2022/11/14 08:05:16;;;;;;;20.17;17.97;;;4.40;99.90;;;;;;4976421;28;20656;-85
2022/11/14 08:07:43;;;;;;;23.17;20.97;;;4.20;99.90;;;;;;4985515;28;21185;-85
2022/11/14 08:10:12;;;;;;;18.13;16.63;;;3.90;99.90;;;;;;4980402;28;20638;-85
2022/11/14 08:12:39;;;;;;;18.20;16.50;;;4.10;99.90;;;;;;4988731;28;20640;-84
2022/11/14 08:15:08;;;;;;;18.60;16.43;;;3.50;99.90;;;;;;4981650;28;20679;-84
2022/11/14 08:17:35;;;;;;;17.97;16.27;;;3.60;99.90;;;;;;4986204;28;20681;-84
2022/11/14 08:20:02;;;;;;;18.80;16.90;;;3.50;99.90;;;;;;4975249;28;20632;-84
2022/11/14 08:22:31;;;;;;;19.97;17.60;;;3.40;99.90;;;;;;4986455;28;20639;-84
2022/11/14 08:24:58;;;;;;;20.00;18.03;;;3.40;99.90;;;;;;4971824;28;20663;-85
2022/11/14 08:27:26;;;;;;;21.30;19.30;;;3.60;99.90;;;;;;4977239;28;20635;-84
2022/11/14 08:29:53;;;;;;;21.13;19.07;;;3.30;99.90;;;;;;4983855;28;20674;-85
2022/11/14 08:32:21;;;;;;;24.63;22.07;;;3.60;99.90;;;;;;4979976;28;20662;-85
2022/11/14 08:34:48;;;;;;;37.40;31.57;;;3.50;99.90;;;;;;4984761;28;20758;-86
2022/11/14 08:37:15;;;;;;;35.53;28.73;;;3.50;99.90;;;;;;4982841;28;20674;-86
2022/11/14 08:39:43;;;;;;;33.87;28.27;;;3.50;99.90;;;;;;4985270;28;20628;-86
2022/11/14 08:42:10;;;;;;;32.20;25.07;;;3.00;99.90;;;;;;4982800;28;20627;-86
2022/11/14 08:44:37;;;;;;;23.53;21.13;;;3.80;99.90;;;;;;4982735;28;20660;-86
2022/11/14 08:47:04;;;;;;;27.97;25.30;;;3.80;99.90;;;;;;4973390;28;20640;-87
2022/11/14 08:49:31;;;;;;;22.93;19.83;;;3.90;99.90;;;;;;4965090;28;20673;-87
2022/11/14 08:51:58;;;;;;;22.37;19.87;;;3.70;99.90;;;;;;4982907;28;20648;-88
2022/11/14 08:54:26;;;;;;;21.07;19.07;;;4.10;99.90;;;;;;4981975;28;20669;-89
2022/11/14 08:56:54;;;;;;;21.43;18.90;;;4.70;99.90;;;;;;4985040;28;20664;-87
2022/11/14 08:59:20;;;;;;;20.90;18.80;;;4.50;99.90;;;;;;4983613;28;20637;-88
2022/11/14 09:01:47;;;;;;;24.80;22.30;;;5.00;99.90;;;;;;4982740;28;20647;-90
2022/11/14 09:04:15;;;;;;;23.83;21.60;;;4.50;99.90;;;;;;4989733;28;21122;-87
2022/11/14 09:06:41;;;;;;;29.20;26.40;;;5.10;99.90;;;;;;4980225;28;20637;-87
2022/11/14 09:09:09;;;;;;;24.67;22.23;;;4.60;99.90;;;;;;4983822;28;20660;-87
2022/11/14 09:11:36;;;;;;;24.33;22.03;;;4.60;99.90;;;;;;4985182;28;20629;-87
2022/11/14 09:14:04;;;;;;;28.03;22.90;;;4.30;99.90;;;;;;4985945;28;20664;-88
2022/11/14 09:16:32;;;;;;;24.40;21.87;;;4.10;99.90;;;;;;4985466;28;21245;-87
2022/11/14 09:18:59;;;;;;;25.00;22.60;;;4.40;99.90;;;;;;4989532;28;20639;-87
2022/11/14 09:21:26;;;;;;;26.27;23.80;;;4.70;99.90;;;;;;4990747;28;21231;-86
2022/11/14 09:23:53;;;;;;;25.17;22.67;;;4.80;99.90;;;;;;4986368;28;20676;-87
2022/11/14 09:26:20;;;;;;;24.67;22.30;;;4.90;99.90;;;;;;4988002;28;20655;-86
2022/11/14 09:28:47;;;;;;;23.23;21.03;;;5.10;99.90;;;;;;4983975;28;20684;-86
2022/11/14 09:31:15;;;;;;;23.33;20.97;;;4.70;99.90;;;;;;4988264;28;21601;-86
2022/11/14 09:33:41;;;;;;;23.60;21.30;;;5.30;99.90;;;;;;4992708;28;20647;-87
2022/11/14 09:36:14;;;;;;;25.53;23.17;;;5.40;99.90;;;;;;4988735;28;20643;-87
2022/11/14 09:38:42;;;;;;;26.47;24.00;;;5.30;99.90;;;;;;4989501;28;20636;-87
2022/11/14 09:41:24;;;;;;;30.13;27.20;;;5.60;99.90;;;;;;4983194;28;20644;-86
2022/11/14 09:44:31;;;;;;;21.67;19.77;;;5.80;99.90;;;;;;4986510;28;20674;-86
2022/11/14 09:47:04;;;;;;;26.43;23.93;;;5.90;99.90;;;;;;4988644;28;20732;-86
2022/11/14 09:49:37;;;;;;;23.37;21.27;;;6.10;99.90;;;;;;4988143;28;21068;-86
2022/11/14 09:52:15;;;;;;;18.60;17.00;;;5.70;99.90;;;;;;4984242;28;20628;-86
2022/11/14 09:54:49;;;;;;;17.50;15.83;;;6.40;99.90;;;;;;4984230;28;20640;-86
2022/11/14 09:57:17;;;;;;;18.90;17.30;;;6.10;99.90;;;;;;4985237;28;20643;-87
2022/11/14 09:59:45;;;;;;;16.87;15.50;;;6.80;99.90;;;;;;4990515;28;20620;-87
2022/11/14 10:02:23;;;;;;;18.90;17.10;;;6.90;99.90;;;;;;4982535;28;20632;-86
2022/11/14 10:04:59;;;;;;;17.97;16.37;;;7.00;99.90;;;;;;4980497;28;20744;-85
2022/11/14 10:07:34;;;;;;;15.40;14.13;;;7.10;99.90;;;;;;4976685;28;21220;-86
2022/11/14 10:10:09;;;;;;;15.20;13.80;;;6.60;99.90;;;;;;4981806;28;20739;-86
2022/11/14 10:12:44;;;;;;;15.07;13.80;;;6.90;99.90;;;;;;4980386;28;21294;-86
2022/11/14 10:15:18;;;;;;;10.90;10.00;;;7.20;99.90;;;;;;4980563;28;20655;-86
2022/11/14 10:18:07;;;;;;;13.03;11.93;;;7.50;99.90;;;;;;4979599;28;20632;-87
2022/11/14 10:20:41;;;;;;;10.17;9.27;;;7.50;99.90;;;;;;4978071;28;20632;-87
2022/11/14 10:23:29;;;;;;;11.73;10.63;;;7.70;99.90;;;;;;4987676;28;20646;-86
2022/11/14 10:26:07;;;;;;;12.83;11.63;;;8.00;99.90;;;;;;4982410;28;20656;-86
2022/11/14 10:28:46;;;;;;;13.73;12.57;;;8.00;99.90;;;;;;4982304;28;21404;-85
2022/11/14 10:31:25;;;;;;;14.83;13.63;;;8.00;99.90;;;;;;4979199;28;20624;-86
2022/11/14 10:34:01;;;;;;;14.43;13.33;;;7.40;99.90;;;;;;4984023;28;21236;-86
2022/11/14 10:36:43;;;;;;;15.70;14.40;;;7.60;99.90;;;;;;4988078;28;20636;-85
2022/11/14 10:39:17;;;;;;;16.00;14.50;;;7.40;99.90;;;;;;4978325;28;21294;-85
2022/11/14 10:41:46;;;;;;;17.47;15.87;;;7.20;99.90;;;;;;4986024;28;20612;-88
2022/11/14 10:44:18;;;;;;;16.30;14.87;;;7.60;99.90;;;;;;4985434;28;20672;-87
2022/11/14 10:46:49;;;;;;;21.57;15.30;;;7.70;99.90;;;;;;4979876;28;20636;-86
2022/11/14 10:49:20;;;;;;;16.70;13.17;;;7.40;99.90;;;;;;4980097;28;20675;-86
2022/11/14 10:51:52;;;;;;;19.30;12.30;;;7.50;99.90;;;;;;4989294;28;20640;-87
2022/11/14 10:54:25;;;;;;;11.50;10.40;;;7.70;99.90;;;;;;4986497;28;20652;-87
2022/11/14 10:56:53;;;;;;;12.80;9.30;;;8.00;99.90;;;;;;4987482;28;20646;-87
2022/11/14 10:59:22;;;;;;;9.40;8.60;;;8.40;99.90;;;;;;4986220;28;21114;-87
2022/11/14 11:01:55;;;;;;;9.00;8.27;;;8.10;99.90;;;;;;4986120;28;20988;-87
2022/11/14 11:04:26;;;;;;;9.23;8.43;;;8.40;99.90;;;;;;4986925;28;20657;-87
2022/11/14 11:06:56;;;;;;;10.73;9.73;;;8.10;99.90;;;;;;4983784;28;20629;-87
2022/11/14 11:12:16;;;;;;;9.30;8.60;;;8.30;99.90;;;;;;4989815;28;20596;-87
2022/11/14 11:14:43;;;;;;;8.67;7.87;;;8.80;99.90;;;;;;4977289;28;20657;-87
2022/11/14 11:17:21;;;;;;;6.83;6.33;;;9.20;99.90;;;;;;4981552;28;20630;-87
2022/11/14 11:19:50;;;;;;;8.00;7.20;;;9.40;99.90;;;;;;4979705;28;20632;-88
2022/11/14 11:22:29;;;;;;;8.07;7.37;;;9.80;99.90;;;;;;4982398;28;20644;-87
2022/11/14 11:24:56;;;;;;;6.63;6.03;;;10.00;99.90;;;;;;4986161;28;20656;-85
2022/11/14 11:27:25;;;;;;;6.77;6.17;;;10.20;99.90;;;;;;4987433;28;20626;-85
2022/11/14 11:30:04;;;;;;;5.90;5.40;;;11.00;99.90;;;;;;4998430;28;20699;-85
2022/11/14 11:32:31;;;;;;;5.90;5.40;;;11.40;99.90;;;;;;4994714;28;20719;-87
2022/11/14 11:35:03;;;;;;;6.40;5.80;;;10.60;99.90;;;;;;4985283;28;20653;-89
2022/11/14 11:37:34;;;;;;;9.43;6.00;;;10.80;99.90;;;;;;4975525;28;20629;-86
2022/11/14 11:40:04;;;;;;;4.70;4.30;;;11.20;99.90;;;;;;4977791;28;20626;-86
2022/11/14 11:42:38;;;;;;;5.03;4.57;;;10.80;99.90;;;;;;4986211;28;20620;-87
2022/11/14 11:45:14;;;;;;;5.00;4.60;;;11.20;99.90;;;;;;4977994;28;20653;-87
2022/11/14 11:47:44;;;;;;;6.13;5.37;;;11.40;99.90;;;;;;4987295;28;21212;-88
2022/11/14 11:50:17;;;;;;;5.57;5.17;;;11.70;99.90;;;;;;4979121;28;20671;-88
2022/11/14 11:52:56;;;;;;;4.73;4.23;;;11.80;99.90;;;;;;4989899;28;20625;-88
2022/11/14 11:55:26;;;;;;;4.63;4.23;;;11.20;99.90;;;;;;4980051;28;20656;-88
2022/11/14 11:58:01;;;;;;;6.40;5.70;;;11.20;99.90;;;;;;4984793;28;20667;-88
2022/11/14 12:00:29;;;;;;;5.47;4.97;;;11.20;99.90;;;;;;4983807;28;20710;-87
2022/11/14 12:02:58;;;;;;;5.43;4.47;;;11.50;99.90;;;;;;4976355;28;21477;-87
2022/11/14 12:05:34;;;;;;;5.00;4.57;;;10.90;99.90;;;;;;4985073;28;21301;-87
2022/11/14 12:08:05;;;;;;;4.50;4.10;;;11.30;99.90;;;;;;4991645;28;21054;-87
2022/11/14 12:10:37;;;;;;;5.57;4.97;;;11.00;99.90;;;;;;4979375;28;20662;-87
2022/11/14 12:13:43;;;;;;;5.33;4.83;;;11.00;99.90;;;;;;4984568;28;20629;-87
2022/11/14 12:16:20;;;;;;;5.50;5.00;;;11.00;99.90;;;;;;4980372;28;20998;-86
2022/11/14 12:19:01;;;;;;;5.50;5.03;;;10.30;99.90;;;;;;4982786;28;21003;-87
2022/11/14 12:21:45;;;;;;;6.00;4.87;;;10.60;99.90;;;;;;4981278;28;20616;-87
2022/11/14 12:24:48;;;;;;;5.77;5.27;;;10.50;99.90;;;;;;4975931;28;20687;-87
2022/11/14 12:27:40;;;;;;;5.70;5.20;;;11.10;99.90;;;;;;4942043;28;20654;-88
2022/11/14 12:30:16;;;;;;;5.53;3.77;;;10.90;99.90;;;;;;4989710;28;21298;-88
2022/11/14 12:32:47;;;;;;;4.63;4.23;;;11.40;99.90;;;;;;4979109;28;20628;-88
2022/11/14 12:35:20;;;;;;;4.20;3.80;;;11.50;99.90;;;;;;4983541;28;20648;-88
2022/11/14 12:37:50;;;;;;;4.50;4.10;;;11.80;99.90;;;;;;4981909;28;21277;-87
2022/11/14 12:40:36;;;;;;;3.53;3.27;;;11.60;99.90;;;;;;4985789;28;20832;-88
2022/11/14 12:43:03;;;;;;;4.10;3.73;;;14.40;76.90;;;;;;4979381;28;20640;-88
2022/11/14 12:46:07;;;;;;;4.03;3.57;;;15.50;1.00;;;;;;4982910;28;20656;-89
2022/11/14 12:48:37;;;;;;;2.17;1.97;;;16.30;1.00;;;;;;4917101;29;21153;-86
2022/11/14 12:51:06;;;;;;;2.47;2.27;;;16.30;1.00;;;;;;4922024;29;20667;-89